Latest Coastal Weather Observations for Rowley Shoals

IDW60701

Issued at 11:25 am WST Thursday 24 April 2014 (issued every 10 minutes, with the page automatically refreshed every 10 minutes)

About coastal observations | Map of coastal stations | Coastal observations for WA | Marine services | Other Formats
Station Details ID: 200713 Name: ROWLEY SHOALS Lat: -17.52 Lon: 118.95 Height: 0.0 m
Data from the previous 72 hours. | See also: Recent months for locations in Western Australia
Date/Time
WST
Temp

°C
Wind Pressure Rain
since 9am
mm
Weather Cloud Vis
km
Sea
Height
m
Swell
Dir
 
Speed
knots
Gust
knots
hPa Trend Height
m
Period
s
Dir
24/11:00am - SSW 9 11 1009.9 - - - - - - - - -
24/10:30am - SSW 10 11 1010.5 - - - - - - - - -
24/10:00am - SSW 9 11 1010.8 - - - - - - - - -
24/09:30am - SSW 9 11 1011.0 - - - - - - - - -
24/09:00am - SSW 8 9 1010.9 - - - - - - - - -
24/08:30am - SSW 8 9 1010.9 - - - - - - - - -
24/08:00am - SSW 7 9 1010.6 - - - - - - - - -
24/07:30am - SSW 8 9 1010.3 - - - - - - - - -
24/07:00am - SSW 7 7 1010.0 - - - - - - - - -
24/06:30am - SSW 6 8 1009.6 - - - - - - - - -
24/06:00am - SSW 5 6 1009.3 - - - - - - - - -
24/05:30am - SSW 6 7 1009.2 - - - - - - - - -
24/05:00am - SSW 6 7 1009.0 - - - - - - - - -
24/04:30am - SW 5 5 1009.0 - - - - - - - - -
24/04:00am - SW 4 5 1008.8 - - - - - - - - -
24/03:30am - SSW 5 6 1009.0 - - - - - - - - -
24/03:00am - SSW 5 6 1008.9 - - - - - - - - -
24/02:30am - SW 5 6 1009.1 - - - - - - - - -
24/02:00am - WSW 4 5 1009.0 - - - - - - - - -
24/01:30am - SW 5 6 1009.3 - - - - - - - - -
24/01:00am - SW 5 6 1009.3 - - - - - - - - -
24/12:30am - WSW 4 6 1009.7 - - - - - - - - -
24/12:00am - SSW 5 6 1010.0 - - - - - - - - -
 
Date/Time
WST
Temp

°C
Wind Pressure Rain
since 9am
mm
Weather Cloud Vis
km
Sea
Height
m
Swell
Dir
 
Speed
knots
Gust
knots
hPa Trend Height
m
Period
s
Dir
23/11:30pm - SSW 5 6 1010.3 - - - - - - - - -
23/11:00pm - SSW 6 7 1010.4 - - - - - - - - -
23/10:30pm - S 7 9 1010.7 - - - - - - - - -
23/10:00pm - S 7 8 1010.7 - - - - - - - - -
23/09:30pm - S 6 8 1011.0 - - - - - - - - -
23/09:00pm - S 7 8 1011.1 - - - - - - - - -
23/08:30pm - S 7 8 1011.2 - - - - - - - - -
23/08:00pm - S 7 10 1010.9 - - - - - - - - -
23/07:30pm - S 8 9 1010.7 - - - - - - - - -
23/07:00pm - S 7 11 1010.4 - - - - - - - - -
23/06:30pm - S 8 11 1010.2 - - - - - - - - -
23/06:00pm - S 7 10 1009.9 - - - - - - - - -
23/05:30pm - S 7 8 1009.5 - - - - - - - - -
23/05:00pm - S 7 11 1009.2 - - - - - - - - -
23/04:30pm - S 8 13 1008.8 - - - - - - - - -
23/04:00pm - S 9 13 1008.6 - - - - - - - - -
23/03:30pm - S 8 11 1008.6 - - - - - - - - -
23/03:00pm - S 7 11 1008.5 - - - - - - - - -
23/02:30pm - S 8 11 1008.7 - - - - - - - - -
23/02:00pm - S 10 11 1008.6 - - - - - - - - -
23/01:30pm - S 9 12 1009.2 - - - - - - - - -
23/01:00pm - S 8 12 1009.4 - - - - - - - - -
23/12:30pm - S 9 12 1009.7 - - - - - - - - -
23/12:00pm - S 9 11 1010.0 - - - - - - - - -
23/11:30am - S 9 13 1010.8 - - - - - - - - -
23/11:00am - S 9 13 1011.0 - - - - - - - - -
23/10:30am - S 9 13 1011.6 - - - - - - - - -
23/10:00am - S 8 10 1011.8 - - - - - - - - -
23/09:30am - S 9 11 1012.0 - - - - - - - - -
23/09:00am - S 10 11 1011.8 - - - - - - - - -
23/08:30am - SSW 10 11 1011.7 - - - - - - - - -
23/08:00am - SSW 9 10 1011.5 - - - - - - - - -
23/07:30am - SSW 7 8 1011.5 - - - - - - - - -
23/07:00am - SSW 6 7 1011.2 - - - - - - - - -
23/06:30am - SW 7 8 1011.0 - - - - - - - - -
23/06:00am - SW 6 7 1010.8 - - - - - - - - -
23/05:30am - SW 6 7 1010.8 - - - - - - - - -
23/05:00am - WSW 5 7 1010.5 - - - - - - - - -
23/04:30am - SW 6 6 1010.5 - - - - - - - - -
23/04:00am - WSW 6 7 1010.5 - - - - - - - - -
23/03:30am - WSW 6 7 1010.6 - - - - - - - - -
23/03:00am - W 5 5 1010.5 - - - - - - - - -
23/02:30am - WNW 4 4 1010.7 - - - - - - - - -
23/02:00am - W 4 5 1010.7 - - - - - - - - -
23/01:30am - W 5 6 1011.1 - - - - - - - - -
23/01:00am - W 5 5 1011.2 - - - - - - - - -
23/12:30am - WNW 5 6 1011.6 - - - - - - - - -
23/12:00am - WNW 5 6 1011.7 - - - - - - - - -
 
Date/Time
WST
Temp

°C
Wind Pressure Rain
since 9am
mm
Weather Cloud Vis
km
Sea
Height
m
Swell
Dir
 
Speed
knots
Gust
knots
hPa Trend Height
m
Period
s
Dir
22/11:30pm - WNW 4 5 1012.2 - - - - - - - - -
22/11:00pm - CALM 0 0 1012.3 - - - - - - - - -
22/10:00pm - S 2 3 1012.4 - - - - - - - - -
22/09:30pm - SSE 5 6 1012.7 - - - - - - - - -
22/09:00pm - SSE 6 8 1012.7 - - - - - - - - -
22/08:30pm - SSE 7 9 1012.6 - - - - - - - - -
22/08:00pm - SSE 8 11 1012.4 - - - - - - - - -
22/07:30pm - SSE 9 11 1012.1 - - - - - - - - -
22/07:00pm - S 8 9 1011.7 - - - - - - - - -
22/06:30pm - SSE 8 10 1011.3 - - - - - - - - -
22/06:00pm - SSE 9 12 1010.9 - - - - - - - - -
22/05:30pm - SSE 9 11 1010.8 - - - - - - - - -
22/05:00pm - SSE 10 12 1010.4 - - - - - - - - -
22/04:30pm - SSE 10 12 1010.3 - - - - - - - - -
22/04:00pm - SSE 11 14 1010.1 - - - - - - - - -
22/03:30pm - SSE 12 14 1010.0 - - - - - - - - -
22/03:00pm - SSE 12 14 1009.8 - - - - - - - - -
22/02:30pm - SSE 12 14 1010.0 - - - - - - - - -
22/02:00pm - SSE 12 14 1009.9 - - - - - - - - -
22/01:30pm - SSE 13 15 1010.2 - - - - - - - - -
22/01:00pm - SSE 12 14 1010.3 - - - - - - - - -
22/12:30pm - SSE 11 13 1010.7 - - - - - - - - -
22/12:00pm - SSE 11 13 1010.8 - - - - - - - - -
22/11:30am - SE 10 11 1011.5 - - - - - - - - -
22/11:00am - SSE 10 11 1011.7 - - - - - - - - -
22/10:30am - SSE 9 10 1012.4 - - - - - - - - -
22/10:00am - SSE 9 10 1012.5 - - - - - - - - -
22/09:30am - SSE 8 10 1012.6 - - - - - - - - -
22/09:00am - SSE 8 8 1012.4 - - - - - - - - -
22/08:30am - S 5 7 1012.4 - - - - - - - - -
22/08:00am - S 5 7 1012.1 - - - - - - - - -
22/07:30am - S 5 7 1012.0 - - - - - - - - -
22/07:00am - S 5 6 1011.7 - - - - - - - - -
22/06:30am - SW 2 4 1011.8 - - - - - - - - -
22/06:00am - CALM 0 0 1011.5 - - - - - - - - -
22/05:30am - W 2 4 1011.4 - - - - - - - - -
22/05:00am - NW 2 3 1011.0 - - - - - - - - -
22/04:30am - WNW 3 4 1011.0 - - - - - - - - -
22/04:00am - NW 4 5 1010.7 - - - - - - - - -
22/03:30am - NW 5 6 1011.0 - - - - - - - - -
22/03:00am - NW 6 7 1010.8 - - - - - - - - -
22/02:30am - NW 7 8 1011.1 - - - - - - - - -
22/02:00am - NW 6 8 1011.1 - - - - - - - - -
22/01:30am - NNW 7 8 1011.3 - - - - - - - - -
22/01:00am - NNW 6 7 1011.5 - - - - - - - - -
22/12:30am - N 4 5 1012.1 - - - - - - - - -
22/12:00am - NE 4 5 1012.3 - - - - - - - - -
 
Date/Time
WST
Temp

°C
Wind Pressure Rain
since 9am
mm
Weather Cloud Vis
km
Sea
Height
m
Swell
Dir
 
Speed
knots
Gust
knots
hPa Trend Height
m
Period
s
Dir
21/11:30pm - ENE 5 6 1012.6 - - - - - - - - -
21/11:00pm - ENE 5 6 1012.7 - - - - - - - - -
21/10:00pm - E 6 7 1012.9 - - - - - - - - -
21/09:30pm - E 7 8 1013.1 - - - - - - - - -
21/09:00pm - E 8 10 1013.0 - - - - - - - - -
21/08:30pm - ESE 9 11 1012.9 - - - - - - - - -
21/08:00pm - ESE 9 11 1012.5 - - - - - - - - -
21/07:30pm - ESE 9 11 1012.1 - - - - - - - - -
21/07:00pm - ESE 9 11 1011.7 - - - - - - - - -
21/06:30pm - ESE 10 12 1011.3 - - - - - - - - -
21/06:00pm - SE 10 11 1011.1 - - - - - - - - -
21/05:30pm - SE 10 11 1011.0 - - - - - - - - -
21/05:00pm - SE 9 11 1010.8 - - - - - - - - -
21/04:30pm - SSE 10 12 1010.6 - - - - - - - - -
21/04:00pm - SSE 10 12 1010.2 - - - - - - - - -
21/03:30pm - S 9 11 1009.6 - - - - - - - - -
21/03:00pm - S 10 14 1009.5 - - - - - - - - -
21/02:30pm - SSE 11 14 1009.7 - - - - - - - - -
21/02:00pm - SSE 12 14 1009.8 - - - - - - - - -
21/01:30pm - SSE 11 13 1010.2 - - - - - - - - -
21/01:00pm - SSE 10 12 1010.3 - - - - - - - - -
21/12:30pm - SE 11 14 1010.5 - - - - - - - - -
21/12:00pm - SSE 11 13 1010.5 - - - - - - - - -
21/11:30am - SSE 10 12 1011.1 - - - - - - - - -

Other Formats:

Comma delimited format used in spreadsheet applications
http://www.bom.gov.au/fwo/IDW60701/IDW60701.94207.axf

JavaScript Object Notation format (JSON) in row-major order
http://www.bom.gov.au/fwo/IDW60701/IDW60701.94207.json